Flugplatz Lechfeld Airport

Bericht für ETSL

vom 18.09. um 11:20 UTC

Wind 4 kt aus 340°

Sichtweite 10 km oder mehr

gering bewölkt in 4000 ft

Temperatur 18.0°C

Taupunkt 6.0°C

Luftfeuchtigkeit 45%

Luftdruck 1017 hPa

ETSL 181120Z 34004KT 9999 FEW040 18/06 Q1017 BLU+

Prognose für ETSL

vom 18.09. um 10:00 UTC

Zwischen 11:00 UTC und 20:00 UTC

Wind 7 kt aus 60°

Sichtweite 10 km oder mehr

keine signifikanten Wettererscheinungen

gering bewölkt in 3000 ft

TAF ETSL 181000Z 1811/1820 06007KT 9999 NSW FEW030 BY ETGL
Impressum